Terminal Aerodrome Forecast
Issued by NWS

Home | Current Version | Previous Version | Text Only | Print | Product List | Glossary On
Versions: 1 2 3 4 5 6 7 8 9 10 11 12 13 14 15 16 17
000
FTUS43 KILX 051208 AAA
TAFBMI
TAF AMD
KBMI 051208Z 0512/0612 VRB05KT 3SM BR OVC003
      TEMPO 0512/0514 1SM BR
     FM051600 18007KT 4SM BR OVC003
     FM051900 15010KT 6SM BR OVC005
     FM060100 13009KT 6SM BR BKN200
     FM060800 13006KT 2SM BR OVC005=

USA.gov is the U.S. government's official web portal to all federal, state and local government web resources and services.